Airfield :
LOGIN :

Register | Disclaimer

   EN    FR    IT 

 










Legend :    VFR   Marginal VFR   IFR   Intensive IFR   Very Intensive IFR
Visi :
Ceiling :
>= 8 km
>= 3000ft
5 to 8 km
1000 to 3000 ft
1500m to 5 km
500 to 1000 ft
800 to 1500m
200 to 500 ft
< 800m
< 200 ft
Symbols :   Thunderstorms  Fog  Heavy snow  Heavy precipitations  Wind > 20 kt
SIGMETs :     Misc.  Thunderstorms  Icing  Turbulence  Mountain Waves  Volcanic Ashes







- Airport Elevation : 200 ft


EBBL - Klein Brogel AB

CURRENT METAR :
  • 190625Z VRB01KT 9999 BKN046 08/07 Q1030 BLU BLU

EXPIRED METARs :
  • 190555Z VRB01KT 9999 BKN047 08/07 Q1030 BLU BLU
  • 190525Z VRB01KT 9999 BKN047 07/07 Q1030 BLU BLU
  • 190520Z VRB01KT 9999 SCT047 07/07 Q1030 BLU BLU
  • 190455Z VRB02KT 9999 BKN047 07/06 Q1030 BLU
  • 190425Z AUTO VRB02KT 9999 OVC047/// 07/06 Q1029 BLU
  • 190355Z AUTO VRB02KT 9999 OVC046/// 07/06 Q1029 BLU

TAF TAF EBBL
Valid from the 19 at 07:00 until the 19 at 16:00 UTC


190541Z 1907/1916 VRB03KT 9999 BKN045
BECMG 1909/1911 05007KT
No reported NOTAMs for that airfield.



MET'MAP, your aeronautical weather chart ! - Copyright ORBIFLY December 2007 - Disclaimer

ORBIFLY MET'MAP TEAM :

Programming & Development : Alexandra Zaïnal
Concept & Development : Baudouin d'Aumeries
Co-Development & Prog : Marc-Olivier Méhu
Technical & hardware support : Manuel Goepfert

Contact : metmap@orbifly.com




SOURCES & CREDITS :

   NOAA